Time,TemperatureF,DewpointF,PressureIn,WindDirection,WindDirectionDegrees,WindSpeedMPH,WindSpeedGustMPH,Humidity,HourlyPrecipIn,Conditions,Clouds,dailyrainin,SoftwareType,DateUTC
2013-03-05 00:00:00,42.4,33.3,30.15,SSE,164,0.0,0.0,70,0.00,CLR,,0.00,WeatherDisplay:10.37,2013-03-05 05:00:00,
2013-03-05 00:05:00,42.3,33.2,30.15,SSE,164,0.0,0.0,70,0.00,CLR,,0.00,WeatherDisplay:10.37,2013-03-05 05:05:00,
2013-03-05 00:10:00,42.3,33.2,30.15,SSE,164,0.0,0.0,70,0.00,CLR,,0.00,WeatherDisplay:10.37,2013-03-05 05:10:00,
2013-03-05 00:15:00,42.3,33.5,30.15,SSE,164,0.0,0.0,71,0.00,CLR,,0.00,WeatherDisplay:10.37,2013-03-05 05:15:00,
2013-03-05 00:20:00,42.1,33.4,30.15,SSE,164,0.0,0.0,71,0.00,CLR,,0.00,WeatherDisplay:10.37,2013-03-05 05:20:00,
2013-03-05 00:25:00,42.1,33.4,30.15,SSE,164,0.0,0.0,71,0.00,CLR,,0.00,WeatherDisplay:10.37,2013-03-05 05:25:00,
2013-03-05 00:30:00,41.9,33.2,30.15,SSE,164,0.0,0.0,71,0.00,CLR,,0.00,WeatherDisplay:10.37,2013-03-05 05:30:00,
2013-03-05 00:35:00,41.5,32.8,30.12,SSE,164,0.0,0.0,71,0.00,CLR,,0.00,WeatherDisplay:10.37,2013-03-05 05:35:00,
2013-03-05 00:40:00,41.4,33.0,30.12,SSE,164,0.0,0.0,72,0.00,CLR,,0.00,WeatherDisplay:10.37,2013-03-05 05:40:00,
2013-03-05 00:45:00,41.2,32.8,30.12,SSE,164,0.0,0.0,72,0.00,CLR,,0.00,WeatherDisplay:10.37,2013-03-05 05:45:00,
2013-03-05 00:50:00,41.2,32.8,30.12,SSE,164,0.0,0.0,72,0.00,CLR,,0.00,WeatherDisplay:10.37,2013-03-05 05:50:00,
2013-03-05 00:55:00,41.2,33.2,30.12,SSE,164,0.0,0.0,73,0.00,CLR,,0.00,WeatherDisplay:10.37,2013-03-05 05:55:00,
2013-03-05 01:00:00,41.0,33.0,30.12,SSE,164,0.0,0.0,73,0.00,CLR,,0.00,WeatherDisplay:10.37,2013-03-05 06:00:00,
2013-03-05 01:05:00,41.0,33.0,30.12,SSE,164,0.0,0.0,73,0.00,CLR,,0.00,WeatherDisplay:10.37,2013-03-05 06:05:00,
2013-03-05 01:10:00,40.6,33.0,30.12,SSE,164,0.0,0.0,74,0.00,CLR,,0.00,WeatherDisplay:10.37,2013-03-05 06:10:00,
2013-03-05 01:15:00,40.6,33.0,30.12,SSE,164,0.0,0.0,74,0.00,CLR,,0.00,WeatherDisplay:10.37,2013-03-05 06:15:00,
2013-03-05 01:20:00,40.5,32.8,30.12,SSE,164,0.0,0.0,74,0.00,CLR,,0.00,WeatherDisplay:10.37,2013-03-05 06:20:00,
2013-03-05 01:25:00,39.9,32.3,30.12,SSE,164,0.0,0.0,74,0.00,CLR,,0.00,WeatherDisplay:10.37,2013-03-05 06:25:00,
2013-03-05 01:30:00,39.7,32.1,30.12,SSE,164,0.0,0.0,74,0.00,CLR,,0.00,WeatherDisplay:10.37,2013-03-05 06:30:00,
2013-03-05 01:35:00,39.6,32.3,30.12,SSE,164,0.0,0.0,75,0.00,CLR,,0.00,WeatherDisplay:10.37,2013-03-05 06:35:00,
2013-03-05 01:40:00,39.6,32.3,30.12,SSE,164,0.0,0.0,75,0.00,CLR,,0.00,WeatherDisplay:10.37,2013-03-05 06:40:00,
2013-03-05 01:45:00,39.7,32.5,30.12,SSE,164,0.0,0.0,75,0.00,CLR,,0.00,WeatherDisplay:10.37,2013-03-05 06:45:00,
2013-03-05 01:50:00,39.9,33.0,30.12,SSE,164,0.0,0.0,76,0.00,CLR,,0.00,WeatherDisplay:10.37,2013-03-05 06:50:00,
2013-03-05 01:55:00,39.9,33.0,30.12,SSE,164,0.0,0.0,76,0.00,CLR,,0.00,WeatherDisplay:10.37,2013-03-05 06:55:00,
2013-03-05 02:00:00,39.9,33.0,30.12,SSE,164,0.0,0.0,76,0.00,CLR,,0.00,WeatherDisplay:10.37,2013-03-05 07:00:00,
2013-03-05 02:05:00,39.9,33.0,30.12,SSE,164,0.0,0.0,76,0.00,CLR,,0.00,WeatherDisplay:10.37,2013-03-05 07:05:00,
2013-03-05 02:10:00,39.6,32.6,30.12,SSE,164,0.0,0.0,76,0.00,CLR,,0.00,WeatherDisplay:10.37,2013-03-05 07:10:00,
2013-03-05 02:15:00,39.4,32.4,30.12,SSE,164,0.0,0.0,76,0.00,CLR,,0.00,WeatherDisplay:10.37,2013-03-05 07:15:00,
2013-03-05 02:20:00,39.2,32.3,30.12,SSE,164,0.0,0.0,76,0.00,CLR,,0.00,WeatherDisplay:10.37,2013-03-05 07:20:00,
2013-03-05 02:25:00,39.0,32.4,30.12,SSE,164,0.0,0.0,77,0.00,CLR,,0.00,WeatherDisplay:10.37,2013-03-05 07:25:00,
2013-03-05 02:30:00,38.8,32.2,30.12,SSE,164,0.0,0.0,77,0.00,CLR,,0.00,WeatherDisplay:10.37,2013-03-05 07:30:00,
2013-03-05 02:35:00,38.8,32.2,30.12,SSE,164,0.0,0.0,77,0.00,CLR,,0.00,WeatherDisplay:10.37,2013-03-05 07:35:00,
2013-03-05 02:40:00,38.8,32.6,30.12,SSE,164,0.0,0.0,78,0.00,CLR,,0.00,WeatherDisplay:10.37,2013-03-05 07:40:00,
2013-03-05 02:45:00,38.8,32.6,30.12,SSE,164,0.0,0.0,78,0.00,CLR,,0.00,WeatherDisplay:10.37,2013-03-05 07:45:00,
2013-03-05 02:50:00,39.0,32.7,30.12,SSE,164,0.0,0.0,78,0.00,CLR,,0.00,WeatherDisplay:10.37,2013-03-05 07:50:00,
2013-03-05 02:55:00,38.8,32.6,30.12,SSE,164,0.0,0.0,78,0.00,CLR,,0.00,WeatherDisplay:10.37,2013-03-05 07:55:00,
2013-03-05 03:00:00,38.7,32.4,30.12,SSE,164,0.0,0.0,78,0.00,CLR,,0.00,WeatherDisplay:10.37,2013-03-05 08:00:00,
2013-03-05 03:05:00,38.5,32.2,30.12,SSE,164,0.0,0.0,78,0.00,CLR,,0.00,WeatherDisplay:10.37,2013-03-05 08:05:00,
2013-03-05 03:10:00,38.3,32.0,30.12,SSE,164,0.0,0.0,78,0.00,CLR,,0.00,WeatherDisplay:10.37,2013-03-05 08:10:00,
2013-03-05 03:15:00,38.1,31.9,30.12,SSE,164,0.0,0.0,78,0.00,CLR,,0.00,WeatherDisplay:10.37,2013-03-05 08:15:00,
2013-03-05 03:20:00,38.1,31.9,30.12,SSE,164,0.0,0.0,78,0.00,CLR,,0.00,WeatherDisplay:10.37,2013-03-05 08:20:00,
2013-03-05 03:25:00,38.1,32.2,30.12,SSE,164,0.0,0.0,79,0.00,CLR,,0.00,WeatherDisplay:10.37,2013-03-05 08:25:00,
2013-03-05 03:30:00,38.3,32.4,30.12,SSE,164,0.0,0.0,79,0.00,CLR,,0.00,WeatherDisplay:10.37,2013-03-05 08:30:00,
2013-03-05 03:35:00,38.7,32.7,30.12,SSE,164,0.0,0.0,79,0.00,CLR,,0.00,WeatherDisplay:10.37,2013-03-05 08:35:00,
2013-03-05 03:40:00,38.7,32.7,30.12,SSE,164,0.0,0.0,79,0.00,CLR,,0.00,WeatherDisplay:10.37,2013-03-05 08:40:00,
2013-03-05 03:46:00,38.7,33.0,30.12,SSE,164,0.0,0.0,80,0.00,CLR,,0.00,WeatherDisplay:10.37,2013-03-05 08:46:00,
2013-03-05 03:51:00,38.7,33.0,30.12,SSE,164,0.0,0.0,80,0.00,CLR,,0.00,WeatherDisplay:10.37,2013-03-05 08:51:00,
2013-03-05 03:56:00,38.5,32.8,30.12,SSE,164,0.0,0.0,80,0.00,CLR,,0.00,WeatherDisplay:10.37,2013-03-05 08:56:00,
2013-03-05 04:01:00,38.3,32.7,30.12,SSE,164,0.0,0.0,80,0.00,CLR,,0.00,WeatherDisplay:10.37,2013-03-05 09:01:00,
2013-03-05 04:06:00,38.3,32.7,30.12,SSE,164,0.0,0.0,80,0.00,CLR,,0.00,WeatherDisplay:10.37,2013-03-05 09:06:00,
2013-03-05 04:11:00,38.3,33.0,30.12,SSE,164,0.0,0.0,81,0.00,CLR,,0.00,WeatherDisplay:10.37,2013-03-05 09:11:00,
2013-03-05 04:16:00,38.3,33.0,30.12,SSE,164,0.0,0.0,81,0.00,CLR,,0.00,WeatherDisplay:10.37,2013-03-05 09:16:00,
2013-03-05 04:21:00,38.5,33.5,30.09,SSE,164,0.0,0.0,82,0.00,CLR,,0.00,WeatherDisplay:10.37,2013-03-05 09:21:00,
2013-03-05 04:26:00,38.5,33.5,30.09,SSE,164,0.0,0.0,82,0.00,CLR,,0.00,WeatherDisplay:10.37,2013-03-05 09:26:00,
2013-03-05 04:31:00,38.7,33.6,30.09,SSE,164,0.0,0.0,82,0.00,CLR,,0.00,WeatherDisplay:10.37,2013-03-05 09:31:00,
2013-03-05 04:36:00,38.7,33.6,30.09,SSE,164,0.0,0.0,82,0.00,CLR,,0.00,WeatherDisplay:10.37,2013-03-05 09:36:00,
2013-03-05 04:41:00,38.5,33.5,30.09,SSE,164,0.0,0.0,82,0.00,CLR,,0.00,WeatherDisplay:10.37,2013-03-05 09:41:00,
2013-03-05 04:46:00,38.1,33.1,30.09,SSE,164,0.0,0.0,82,0.00,CLR,,0.00,WeatherDisplay:10.37,2013-03-05 09:46:00,
2013-03-05 04:51:00,37.9,32.9,30.12,SSE,164,0.0,0.0,82,0.00,CLR,,0.00,WeatherDisplay:10.37,2013-03-05 09:51:00,
2013-03-05 04:56:00,37.6,32.6,30.12,SSE,164,0.0,0.0,82,0.00,CLR,,0.00,WeatherDisplay:10.37,2013-03-05 09:56:00,
2013-03-05 05:01:00,37.6,32.6,30.12,SSE,164,0.0,0.0,82,0.00,CLR,,0.00,WeatherDisplay:10.37,2013-03-05 10:01:00,
2013-03-05 05:06:00,37.6,32.9,30.12,SSE,164,0.0,0.0,83,0.00,CLR,,0.00,WeatherDisplay:10.37,2013-03-05 10:06:00,
2013-03-05 05:11:00,37.2,32.5,30.12,SSE,164,0.0,0.0,83,0.00,CLR,,0.00,WeatherDisplay:10.37,2013-03-05 10:11:00,
2013-03-05 05:16:00,37.0,32.4,30.12,SSE,164,0.0,0.0,83,0.00,CLR,,0.00,WeatherDisplay:10.37,2013-03-05 10:16:00,
2013-03-05 05:21:00,36.9,32.2,30.15,SSE,164,0.0,0.0,83,0.00,CLR,,0.00,WeatherDisplay:10.37,2013-03-05 10:21:00,
2013-03-05 05:26:00,37.0,32.4,30.15,SSE,164,0.0,0.0,83,0.00,CLR,,0.00,WeatherDisplay:10.37,2013-03-05 10:26:00,
2013-03-05 05:31:00,37.0,32.7,30.15,SSE,164,0.0,0.0,84,0.00,CLR,,0.00,WeatherDisplay:10.37,2013-03-05 10:31:00,
2013-03-05 05:36:00,37.2,32.8,30.15,SSE,164,0.0,0.0,84,0.00,CLR,,0.00,WeatherDisplay:10.37,2013-03-05 10:36:00,
2013-03-05 05:41:00,37.2,32.8,30.15,SSE,164,0.0,0.0,84,0.00,CLR,,0.00,WeatherDisplay:10.37,2013-03-05 10:41:00,
2013-03-05 05:46:00,37.2,32.8,30.15,SSE,164,0.0,0.0,84,0.00,CLR,,0.00,WeatherDisplay:10.37,2013-03-05 10:46:00,
2013-03-05 05:51:00,37.6,33.2,30.15,SSE,164,0.0,0.0,84,0.00,CLR,,0.00,WeatherDisplay:10.37,2013-03-05 10:51:00,
2013-03-05 05:56:00,37.6,33.2,30.15,SSE,164,0.0,0.0,84,0.00,CLR,,0.00,WeatherDisplay:10.37,2013-03-05 10:56:00,
2013-03-05 06:01:00,37.6,33.2,30.15,SSE,164,0.0,0.0,84,0.00,CLR,,0.00,WeatherDisplay:10.37,2013-03-05 11:01:00,
2013-03-05 06:06:00,37.8,33.4,30.15,SSE,164,0.0,0.0,84,0.00,CLR,,0.00,WeatherDisplay:10.37,2013-03-05 11:06:00,
2013-03-05 06:11:00,37.6,33.2,30.15,SSE,164,0.0,0.0,84,0.00,CLR,,0.00,WeatherDisplay:10.37,2013-03-05 11:11:00,
2013-03-05 06:16:00,37.4,33.0,30.15,SSE,164,0.0,0.0,84,0.00,CLR,,0.00,WeatherDisplay:10.37,2013-03-05 11:16:00,
2013-03-05 06:21:00,37.0,32.9,30.15,SSE,164,0.0,0.0,85,0.00,CLR,,0.00,WeatherDisplay:10.37,2013-03-05 11:21:00,
2013-03-05 06:26:00,37.0,32.9,30.15,SSE,164,0.0,0.0,85,0.00,CLR,,0.00,WeatherDisplay:10.37,2013-03-05 11:26:00,
2013-03-05 06:31:00,36.9,32.8,30.15,SSE,164,0.0,0.0,85,0.00,CLR,,0.00,WeatherDisplay:10.37,2013-03-05 11:31:00,
2013-03-05 06:36:00,36.9,32.8,30.15,SSE,164,0.0,0.0,85,0.00,CLR,,0.00,WeatherDisplay:10.37,2013-03-05 11:36:00,
2013-03-05 06:41:00,37.0,32.9,30.15,SSE,164,0.0,0.0,85,0.00,CLR,,0.00,WeatherDisplay:10.37,2013-03-05 11:41:00,
2013-03-05 06:46:00,37.0,32.9,30.15,SSE,164,0.0,0.0,85,0.00,CLR,,0.00,WeatherDisplay:10.37,2013-03-05 11:46:00,
2013-03-05 06:51:00,36.9,32.8,30.15,SSE,164,0.0,0.0,85,0.00,CLR,,0.00,WeatherDisplay:10.37,2013-03-05 11:51:00,
2013-03-05 06:56:00,37.0,32.9,30.15,SSE,164,0.0,0.0,85,0.00,CLR,,0.00,WeatherDisplay:10.37,2013-03-05 11:56:00,
2013-03-05 07:01:00,37.0,33.2,30.15,SSE,164,0.0,0.0,86,0.00,CLR,,0.00,WeatherDisplay:10.37,2013-03-05 12:01:00,
2013-03-05 07:06:00,37.0,33.2,30.15,SSE,164,0.0,0.0,86,0.00,CLR,,0.00,WeatherDisplay:10.37,2013-03-05 12:06:00,
2013-03-05 07:11:00,37.4,33.6,30.15,SSE,164,0.0,0.0,86,0.00,CLR,,0.00,WeatherDisplay:10.37,2013-03-05 12:11:00,
2013-03-05 07:16:00,37.6,33.8,30.15,SSE,164,0.0,0.0,86,0.00,CLR,,0.00,WeatherDisplay:10.37,2013-03-05 12:16:00,
2013-03-05 07:21:00,37.9,34.1,30.15,SSE,164,0.0,0.0,86,0.00,CLR,,0.00,WeatherDisplay:10.37,2013-03-05 12:21:00,
2013-03-05 07:26:00,37.9,34.1,30.15,SSE,164,0.0,0.0,86,0.00,CLR,,0.00,WeatherDisplay:10.37,2013-03-05 12:26:00,
2013-03-05 07:31:00,38.1,34.3,30.15,SSE,164,0.0,0.0,86,0.00,CLR,,0.00,WeatherDisplay:10.37,2013-03-05 12:31:00,
2013-03-05 07:36:00,38.1,34.3,30.18,SSE,164,0.0,0.0,86,0.00,CLR,,0.00,WeatherDisplay:10.37,2013-03-05 12:36:00,
2013-03-05 07:41:00,38.1,34.3,30.18,SSE,164,0.0,0.0,86,0.00,CLR,,0.00,WeatherDisplay:10.37,2013-03-05 12:41:00,
2013-03-05 07:46:00,38.5,34.9,30.18,SSE,164,0.0,0.0,87,0.00,CLR,,0.00,WeatherDisplay:10.37,2013-03-05 12:46:00,
2013-03-05 07:51:00,38.8,35.3,30.18,SSE,164,0.0,0.0,87,0.00,CLR,,0.00,WeatherDisplay:10.37,2013-03-05 12:51:00,
2013-03-05 07:57:00,39.2,35.7,30.18,SSE,164,0.0,0.0,87,0.00,CLR,,0.00,WeatherDisplay:10.37,2013-03-05 12:57:00,
2013-03-05 08:02:00,39.6,36.0,30.18,SSE,164,0.0,0.0,87,0.00,CLR,,0.00,WeatherDisplay:10.37,2013-03-05 13:02:00,
2013-03-05 08:07:00,39.9,36.4,30.18,SSE,164,0.0,0.0,87,0.00,CLR,,0.00,WeatherDisplay:10.37,2013-03-05 13:07:00,
2013-03-05 08:12:00,40.5,36.9,30.18,SSE,164,0.0,0.0,87,0.00,CLR,,0.00,WeatherDisplay:10.37,2013-03-05 13:12:00,
2013-03-05 08:17:00,41.0,37.4,30.18,SSE,164,0.0,0.0,87,0.00,CLR,,0.00,WeatherDisplay:10.37,2013-03-05 13:17:00,
2013-03-05 08:22:00,41.5,38.0,30.15,SSE,164,0.0,0.0,87,0.00,CLR,,0.00,WeatherDisplay:10.37,2013-03-05 13:22:00,
2013-03-05 08:27:00,42.1,38.8,30.15,SSE,164,0.0,0.0,88,0.00,CLR,,0.00,WeatherDisplay:10.37,2013-03-05 13:27:00,
2013-03-05 08:32:00,42.8,39.2,30.15,SSE,164,0.0,0.0,87,0.00,CLR,,0.00,WeatherDisplay:10.37,2013-03-05 13:32:00,
2013-03-05 08:37:00,43.7,40.4,30.18,SSE,164,0.0,0.0,88,0.00,CLR,,0.00,WeatherDisplay:10.37,2013-03-05 13:37:00,
2013-03-05 08:42:00,45.0,41.9,30.18,SSE,153,0.0,0.0,89,0.00,CLR,,0.00,WeatherDisplay:10.37,2013-03-05 13:42:00,
2013-03-05 08:47:00,46.4,43.3,30.18,East,79,0.0,0.0,89,0.00,CLR,,0.00,WeatherDisplay:10.37,2013-03-05 13:47:00,
2013-03-05 08:52:00,48.6,45.8,30.15,East,85,3.5,0.0,90,0.00,CLR,,0.00,WeatherDisplay:10.37,2013-03-05 13:52:00,
2013-03-05 08:57:00,51.4,48.6,30.15,East,86,0.0,0.0,90,0.00,CLR,,0.00,WeatherDisplay:10.37,2013-03-05 13:57:00,
2013-03-05 09:02:00,53.4,50.3,30.15,ESE,103,0.0,0.0,89,0.00,CLR,,0.00,WeatherDisplay:10.37,2013-03-05 14:02:00,
2013-03-05 09:07:00,56.8,51.4,30.18,ESE,114,0.0,0.0,82,0.00,CLR,,0.00,WeatherDisplay:10.37,2013-03-05 14:07:00,
2013-03-05 09:12:00,58.5,50.2,30.18,SSW,199,2.3,0.0,74,0.00,CLR,,0.00,WeatherDisplay:10.37,2013-03-05 14:12:00,
2013-03-05 09:17:00,59.7,49.9,30.18,ESE,119,2.3,0.0,70,0.00,CLR,,0.00,WeatherDisplay:10.37,2013-03-05 14:17:00,
2013-03-05 09:22:00,60.6,46.7,30.15,SE,125,2.3,0.0,60,0.00,CLR,,0.00,WeatherDisplay:10.37,2013-03-05 14:22:00,
2013-03-05 09:27:00,61.9,42.0,30.15,SSE,163,0.0,0.0,48,0.00,CLR,,0.00,WeatherDisplay:10.37,2013-03-05 14:27:00,
2013-03-05 09:32:00,63.0,42.4,30.15,South,190,3.5,0.0,47,0.00,CLR,,0.00,WeatherDisplay:10.37,2013-03-05 14:32:00,
2013-03-05 09:37:00,63.3,40.4,30.18,West,276,4.6,4.6,43,0.00,CLR,,0.00,WeatherDisplay:10.37,2013-03-05 14:37:00,
2013-03-05 09:42:00,63.7,40.1,30.18,SW,229,3.6,3.6,42,0.00,CLR,,0.00,WeatherDisplay:10.37,2013-03-05 14:42:00,
2013-03-05 09:47:00,64.4,38.9,30.18,SSW,200,4.6,4.6,39,0.00,CLR,,0.00,WeatherDisplay:10.37,2013-03-05 14:47:00,
2013-03-05 09:52:00,64.8,37.9,30.18,ENE,73,3.5,3.5,37,0.00,CLR,,0.00,WeatherDisplay:10.37,2013-03-05 14:52:00,
2013-03-05 09:57:00,65.1,37.5,30.18,East,82,3.5,0.0,36,0.00,CLR,,0.00,WeatherDisplay:10.37,2013-03-05 14:57:00,
2013-03-05 10:02:00,65.1,37.5,30.18,East,84,3.5,3.5,36,0.00,CLR,,0.00,WeatherDisplay:10.37,2013-03-05 15:02:00,
2013-03-05 10:07:00,65.5,37.8,30.15,WSW,237,5.8,5.8,36,0.00,CLR,,0.00,WeatherDisplay:10.37,2013-03-05 15:07:00,
2013-03-05 10:12:00,65.8,38.1,30.15,East,81,3.5,3.5,36,0.00,CLR,,0.00,WeatherDisplay:10.37,2013-03-05 15:12:00,
2013-03-05 10:17:00,66.4,37.1,30.15,South,186,8.1,8.1,34,0.00,CLR,,0.00,WeatherDisplay:10.37,2013-03-05 15:17:00,
2013-03-05 10:22:00,66.6,38.0,30.15,East,89,4.6,4.6,35,0.00,CLR,,0.00,WeatherDisplay:10.37,2013-03-05 15:22:00,
2013-03-05 10:27:00,67.1,37.8,30.15,East,94,2.3,0.0,34,0.00,CLR,,0.00,WeatherDisplay:10.37,2013-03-05 15:27:00,
2013-03-05 10:32:00,67.8,37.6,30.15,South,183,4.6,4.6,33,0.00,CLR,,0.00,WeatherDisplay:10.37,2013-03-05 15:32:00,
2013-03-05 10:37:00,68.2,38.0,30.15,SSW,192,4.6,4.6,33,0.00,CLR,,0.00,WeatherDisplay:10.37,2013-03-05 15:37:00,
2013-03-05 10:42:00,68.4,38.1,30.15,West,271,3.5,3.5,33,0.00,CLR,,0.00,WeatherDisplay:10.37,2013-03-05 15:42:00,
2013-03-05 10:47:00,68.4,37.3,30.15,WSW,241,5.8,5.8,32,0.00,CLR,,0.00,WeatherDisplay:10.37,2013-03-05 15:47:00,
2013-03-05 10:52:00,68.4,37.3,30.15,SSW,193,5.8,5.8,32,0.00,CLR,,0.00,WeatherDisplay:10.37,2013-03-05 15:52:00,
2013-03-05 10:57:00,68.5,37.5,30.15,WSW,246,4.6,4.6,32,0.00,CLR,,0.00,WeatherDisplay:10.37,2013-03-05 15:57:00,
2013-03-05 11:02:00,68.7,37.7,30.15,SSE,153,5.8,5.8,32,0.00,CLR,,0.00,WeatherDisplay:10.37,2013-03-05 16:02:00,
2013-03-05 11:07:00,69.3,38.1,30.12,SW,235,3.5,3.5,32,0.00,CLR,,0.00,WeatherDisplay:10.37,2013-03-05 16:07:00,
2013-03-05 11:12:00,69.8,36.9,30.12,South,170,5.8,5.8,30,0.00,CLR,,0.00,WeatherDisplay:10.37,2013-03-05 16:12:00,
2013-03-05 11:17:00,70.5,36.7,30.12,East,96,8.1,8.1,29,0.00,CLR,,0.00,WeatherDisplay:10.37,2013-03-05 16:17:00,
2013-03-05 11:22:00,70.7,36.0,30.12,WSW,256,5.8,5.8,28,0.00,CLR,,0.00,WeatherDisplay:10.37,2013-03-05 16:22:00,
2013-03-05 11:27:00,70.5,35.8,30.12,West,264,5.8,5.8,28,0.00,CLR,,0.00,WeatherDisplay:10.37,2013-03-05 16:27:00,
2013-03-05 11:32:00,70.7,35.1,30.12,WSW,238,5.8,5.8,27,0.00,CLR,,0.00,WeatherDisplay:10.37,2013-03-05 16:32:00,
2013-03-05 11:37:00,70.9,36.1,30.15,SW,232,5.8,5.8,28,0.00,CLR,,0.00,WeatherDisplay:10.37,2013-03-05 16:37:00,
2013-03-05 11:42:00,71.2,35.5,30.15,SW,226,5.8,5.8,27,0.00,CLR,,0.00,WeatherDisplay:10.37,2013-03-05 16:42:00,
2013-03-05 11:47:00,71.2,36.4,30.15,West,280,4.6,4.6,28,0.00,CLR,,0.00,WeatherDisplay:10.37,2013-03-05 16:47:00,
2013-03-05 11:52:00,71.4,38.4,30.12,WSW,249,3.5,4.0,30,0.00,CLR,,0.00,WeatherDisplay:10.37,2013-03-05 16:52:00,
2013-03-05 11:57:00,71.6,36.8,30.12,South,175,2.3,2.3,28,0.00,CLR,,0.00,WeatherDisplay:10.37,2013-03-05 16:57:00,
2013-03-05 12:02:00,71.6,35.8,30.12,West,272,9.2,9.2,27,0.00,CLR,,0.00,WeatherDisplay:10.37,2013-03-05 17:02:00,
2013-03-05 12:07:00,71.6,36.8,30.12,West,278,8.1,8.1,28,0.00,CLR,,0.00,WeatherDisplay:10.37,2013-03-05 17:07:00,
2013-03-05 12:12:00,72.0,36.1,30.12,West,264,5.8,5.8,27,0.00,CLR,,0.00,WeatherDisplay:10.37,2013-03-05 17:12:00,
2013-03-05 12:17:00,71.8,36.0,30.12,WSW,238,5.8,0.0,27,0.00,CLR,,0.00,WeatherDisplay:10.37,2013-03-05 17:17:00,
2013-03-05 12:22:00,72.1,36.3,30.12,SW,218,5.8,5.8,27,0.00,CLR,,0.00,WeatherDisplay:10.37,2013-03-05 17:22:00,
2013-03-05 12:27:00,72.9,36.9,30.12,NNE,17,3.5,0.0,27,0.00,CLR,,0.00,WeatherDisplay:10.37,2013-03-05 17:27:00,
2013-03-05 12:32:00,72.9,36.9,30.12,WSW,253,5.8,5.8,27,0.00,CLR,,0.00,WeatherDisplay:10.37,2013-03-05 17:32:00,
2013-03-05 12:37:00,73.0,36.1,30.12,WSW,238,5.8,5.8,26,0.00,CLR,,0.00,WeatherDisplay:10.37,2013-03-05 17:37:00,
2013-03-05 12:42:00,73.2,36.3,30.12,WSW,239,6.9,6.9,26,0.00,CLR,,0.00,WeatherDisplay:10.37,2013-03-05 17:42:00,
2013-03-05 12:47:00,72.7,36.8,30.12,WSW,246,5.8,5.8,27,0.00,CLR,,0.00,WeatherDisplay:10.37,2013-03-05 17:47:00,
2013-03-05 12:52:00,73.0,36.1,30.12,WSW,249,3.6,4.0,26,0.00,CLR,,0.00,WeatherDisplay:10.37,2013-03-05 17:52:00,
2013-03-05 12:57:00,73.0,36.1,30.12,East,100,5.8,5.8,26,0.00,CLR,,0.00,WeatherDisplay:10.37,2013-03-05 17:57:00,
2013-03-05 13:02:00,73.4,35.4,30.12,SW,218,11.5,11.5,25,0.00,CLR,,0.00,WeatherDisplay:10.37,2013-03-05 18:02:00,
2013-03-05 13:07:00,73.4,35.4,30.09,SW,234,3.5,3.5,25,0.00,CLR,,0.00,WeatherDisplay:10.37,2013-03-05 18:07:00,
2013-03-05 13:12:00,73.9,34.8,30.09,SSE,150,8.1,8.1,24,0.00,CLR,,0.00,WeatherDisplay:10.37,2013-03-05 18:12:00,
2013-03-05 13:18:00,74.1,35.0,30.09,South,191,8.1,8.1,24,0.00,CLR,,0.00,WeatherDisplay:10.37,2013-03-05 18:18:00,
2013-03-05 13:23:00,74.5,36.3,30.09,NW,314,4.6,4.6,25,0.00,CLR,,0.00,WeatherDisplay:10.37,2013-03-05 18:23:00,
2013-03-05 13:28:00,74.7,35.5,30.09,WSW,241,8.1,8.1,24,0.00,CLR,,0.00,WeatherDisplay:10.37,2013-03-05 18:28:00,
2013-03-05 13:33:00,74.7,35.5,30.09,WNW,296,5.8,5.8,24,0.00,CLR,,0.00,WeatherDisplay:10.37,2013-03-05 18:33:00,
2013-03-05 13:38:00,74.8,35.6,30.06,SE,136,4.6,4.6,24,0.00,CLR,,0.00,WeatherDisplay:10.37,2013-03-05 18:38:00,
2013-03-05 13:43:00,75.0,35.8,30.06,SSW,204,3.6,3.6,24,0.00,CLR,,0.00,WeatherDisplay:10.37,2013-03-05 18:43:00,
2013-03-05 13:48:00,75.2,34.8,30.06,WSW,249,9.2,9.2,23,0.00,CLR,,0.00,WeatherDisplay:10.37,2013-03-05 18:48:00,
2013-03-05 13:53:00,75.2,34.8,30.06,WSW,257,3.6,0.0,23,0.00,CLR,,0.00,WeatherDisplay:10.37,2013-03-05 18:53:00,
2013-03-05 13:58:00,75.4,36.1,30.06,SE,136,5.8,5.8,24,0.00,CLR,,0.00,WeatherDisplay:10.37,2013-03-05 18:58:00,
2013-03-05 14:03:00,75.4,36.1,30.06,WSW,256,5.8,5.8,24,0.00,CLR,,0.00,WeatherDisplay:10.37,2013-03-05 19:03:00,
2013-03-05 14:08:00,75.7,36.4,30.06,WSW,246,8.1,8.1,24,0.00,CLR,,0.00,WeatherDisplay:10.37,2013-03-05 19:08:00,
2013-03-05 14:13:00,75.7,36.4,30.06,WNW,288,8.1,8.1,24,0.00,CLR,,0.00,WeatherDisplay:10.37,2013-03-05 19:13:00,
2013-03-05 14:18:00,75.7,35.3,30.06,SW,229,9.2,9.2,23,0.00,CLR,,0.00,WeatherDisplay:10.37,2013-03-05 19:18:00,
2013-03-05 14:23:00,75.4,35.0,30.06,SE,126,4.6,4.6,23,0.00,CLR,,0.00,WeatherDisplay:10.37,2013-03-05 19:23:00,
2013-03-05 14:28:00,75.7,36.4,30.06,ESE,107,5.8,5.8,24,0.00,CLR,,0.00,WeatherDisplay:10.37,2013-03-05 19:28:00,
2013-03-05 14:33:00,76.1,35.6,30.06,West,262,9.2,9.2,23,0.00,CLR,,0.00,WeatherDisplay:10.37,2013-03-05 19:33:00,
2013-03-05 14:38:00,75.9,36.5,30.03,West,271,8.1,8.1,24,0.00,CLR,,0.00,WeatherDisplay:10.37,2013-03-05 19:38:00,
2013-03-05 14:43:00,76.1,35.6,30.03,WSW,249,5.8,5.8,23,0.00,CLR,,0.00,WeatherDisplay:10.37,2013-03-05 19:43:00,
2013-03-05 14:48:00,76.6,36.0,30.03,SW,217,5.8,5.8,23,0.00,CLR,,0.00,WeatherDisplay:10.37,2013-03-05 19:48:00,
2013-03-05 14:53:00,76.6,36.0,30.03,NW,310,5.8,6.3,23,0.00,CLR,,0.00,WeatherDisplay:10.37,2013-03-05 19:53:00,
2013-03-05 14:58:00,76.3,36.8,30.03,SW,221,8.3,8.3,24,0.00,CLR,,0.00,WeatherDisplay:10.37,2013-03-05 19:58:00,
2013-03-05 15:03:00,76.3,36.8,30.03,West,263,8.1,8.1,24,0.00,CLR,,0.00,WeatherDisplay:10.37,2013-03-05 20:03:00,
2013-03-05 15:08:00,76.6,37.1,30.03,WSW,246,8.1,8.1,24,0.00,CLR,,0.00,WeatherDisplay:10.37,2013-03-05 20:08:00,
2013-03-05 15:13:00,76.6,37.1,30.03,SSW,209,10.4,10.4,24,0.00,CLR,,0.00,WeatherDisplay:10.37,2013-03-05 20:13:00,
2013-03-05 15:18:00,76.5,37.0,30.03,WSW,243,5.8,5.8,24,0.00,CLR,,0.00,WeatherDisplay:10.37,2013-03-05 20:18:00,
2013-03-05 15:23:00,76.8,37.3,30.03,SSE,166,4.6,4.6,24,0.00,CLR,,0.00,WeatherDisplay:10.37,2013-03-05 20:23:00,
2013-03-05 15:28:00,77.2,37.6,30.03,West,281,4.6,4.6,24,0.00,CLR,,0.00,WeatherDisplay:10.37,2013-03-05 20:28:00,
2013-03-05 15:33:00,77.5,37.9,30.03,ESE,104,5.8,5.8,24,0.00,CLR,,0.00,WeatherDisplay:10.37,2013-03-05 20:33:00,
2013-03-05 15:38:00,77.5,37.9,30.03,SW,233,5.8,5.8,24,0.00,CLR,,0.00,WeatherDisplay:10.37,2013-03-05 20:38:00,
2013-03-05 15:43:00,77.5,37.9,30.03,SW,234,4.6,4.6,24,0.00,CLR,,0.00,WeatherDisplay:10.37,2013-03-05 20:43:00,
2013-03-05 15:48:00,77.5,37.9,30.03,ESE,108,5.8,5.8,24,0.00,CLR,,0.00,WeatherDisplay:10.37,2013-03-05 20:48:00,
2013-03-05 15:53:00,77.9,38.2,30.03,SSW,209,5.8,0.0,24,0.00,CLR,,0.00,WeatherDisplay:10.37,2013-03-05 20:53:00,
2013-03-05 15:58:00,78.3,38.5,30.03,SSW,207,5.8,5.8,24,0.00,CLR,,0.00,WeatherDisplay:10.37,2013-03-05 20:58:00,
2013-03-05 16:03:00,78.3,38.5,30.03,South,170,8.7,8.7,24,0.00,CLR,,0.00,WeatherDisplay:10.37,2013-03-05 21:03:00,
2013-03-05 16:08:00,78.1,38.3,30.03,SW,223,8.1,8.1,24,0.00,CLR,,0.00,WeatherDisplay:10.37,2013-03-05 21:08:00,
2013-03-05 16:13:00,77.5,37.9,30.03,WSW,257,9.2,9.2,24,0.00,CLR,,0.00,WeatherDisplay:10.37,2013-03-05 21:13:00,
2013-03-05 16:18:00,77.5,37.9,30.03,SW,230,4.6,4.6,24,0.00,CLR,,0.00,WeatherDisplay:10.37,2013-03-05 21:18:00,
2013-03-05 16:23:00,77.5,37.9,30.03,WSW,246,3.6,3.6,24,0.00,CLR,,0.00,WeatherDisplay:10.37,2013-03-05 21:23:00,
2013-03-05 16:28:00,77.4,37.7,30.03,West,276,5.8,5.8,24,0.00,CLR,,0.00,WeatherDisplay:10.37,2013-03-05 21:28:00,
2013-03-05 16:33:00,76.8,38.3,30.03,West,280,9.2,9.2,25,0.00,CLR,,0.00,WeatherDisplay:10.37,2013-03-05 21:33:00,
2013-03-05 16:38:00,76.8,38.3,30.03,West,269,6.9,6.9,25,0.00,CLR,,0.00,WeatherDisplay:10.37,2013-03-05 21:38:00,
2013-03-05 16:43:00,76.6,38.2,30.03,WSW,250,3.5,0.0,25,0.00,CLR,,0.00,WeatherDisplay:10.37,2013-03-05 21:43:00,
2013-03-05 16:49:00,76.3,37.9,30.03,WSW,249,5.8,0.0,25,0.00,CLR,,0.00,WeatherDisplay:10.37,2013-03-05 21:49:00,
2013-03-05 16:54:00,75.4,37.1,30.03,West,266,8.1,8.1,25,0.00,CLR,,0.00,WeatherDisplay:10.37,2013-03-05 21:54:00,
2013-03-05 16:59:00,75.0,36.8,30.03,WSW,241,8.1,8.1,25,0.00,CLR,,0.00,WeatherDisplay:10.37,2013-03-05 21:59:00,
2013-03-05 17:04:00,75.2,37.9,30.03,WSW,253,5.8,5.8,26,0.00,CLR,,0.00,WeatherDisplay:10.37,2013-03-05 22:04:00,
2013-03-05 17:09:00,75.0,37.8,30.03,SW,229,3.5,3.5,26,0.00,CLR,,0.00,WeatherDisplay:10.37,2013-03-05 22:09:00,
2013-03-05 17:14:00,74.8,37.6,30.03,WNW,292,5.8,5.8,26,0.00,CLR,,0.00,WeatherDisplay:10.37,2013-03-05 22:14:00,
2013-03-05 17:19:00,74.5,38.3,30.03,West,259,9.2,9.2,27,0.00,CLR,,0.00,WeatherDisplay:10.37,2013-03-05 22:19:00,
2013-03-05 17:24:00,74.5,39.2,30.00,West,276,5.8,5.8,28,0.00,CLR,,0.00,WeatherDisplay:10.37,2013-03-05 22:24:00,
2013-03-05 17:29:00,74.8,39.5,30.00,South,178,3.1,0.0,28,0.00,CLR,,0.00,WeatherDisplay:10.37,2013-03-05 22:29:00,
2013-03-05 17:34:00,74.8,38.6,30.00,SW,225,3.5,3.5,27,0.00,CLR,,0.00,WeatherDisplay:10.37,2013-03-05 22:34:00,
2013-03-05 17:39:00,74.7,38.4,30.00,WSW,252,8.1,8.1,27,0.00,CLR,,0.00,WeatherDisplay:10.37,2013-03-05 22:39:00,
2013-03-05 17:44:00,74.7,38.4,30.00,WSW,249,8.1,0.0,27,0.00,CLR,,0.00,WeatherDisplay:10.37,2013-03-05 22:44:00,
2013-03-05 17:49:00,74.8,39.5,30.00,ESE,123,3.5,0.0,28,0.00,CLR,,0.00,WeatherDisplay:10.37,2013-03-05 22:49:00,
2013-03-05 17:54:00,75.0,39.7,30.00,NW,311,9.2,9.2,28,0.00,CLR,,0.00,WeatherDisplay:10.37,2013-03-05 22:54:00,
2013-03-05 17:59:00,74.7,39.4,30.00,WNW,287,3.5,0.0,28,0.00,CLR,,0.00,WeatherDisplay:10.37,2013-03-05 22:59:00,
2013-03-05 18:04:00,74.5,39.2,30.00,SSW,202,4.6,0.0,28,0.00,CLR,,0.00,WeatherDisplay:10.37,2013-03-05 23:04:00,
2013-03-05 18:09:00,73.9,38.8,30.00,SSE,159,3.5,3.5,28,0.00,CLR,,0.00,WeatherDisplay:10.37,2013-03-05 23:09:00,
2013-03-05 18:14:00,73.2,39.0,30.00,WSW,255,3.5,3.5,29,0.00,CLR,,0.00,WeatherDisplay:10.37,2013-03-05 23:14:00,
2013-03-05 18:19:00,72.5,38.4,30.00,SSE,159,2.3,0.0,29,0.00,CLR,,0.00,WeatherDisplay:10.37,2013-03-05 23:19:00,
2013-03-05 18:24:00,72.0,38.8,30.00,South,178,2.3,0.0,30,0.00,CLR,,0.00,WeatherDisplay:10.37,2013-03-05 23:24:00,
2013-03-05 18:29:00,71.4,39.2,30.00,SW,233,0.0,0.0,31,0.00,CLR,,0.00,WeatherDisplay:10.37,2013-03-05 23:29:00,
2013-03-05 18:34:00,71.1,38.9,30.00,SW,219,3.5,3.5,31,0.00,CLR,,0.00,WeatherDisplay:10.37,2013-03-05 23:34:00,
2013-03-05 18:39:00,70.7,39.4,30.00,WSW,237,2.3,0.0,32,0.00,CLR,,0.00,WeatherDisplay:10.37,2013-03-05 23:39:00,
2013-03-05 18:44:00,70.3,39.1,30.00,SSW,209,4.6,0.0,32,0.00,CLR,,0.00,WeatherDisplay:10.37,2013-03-05 23:44:00,
2013-03-05 18:49:00,70.2,38.9,30.00,SW,227,3.5,0.0,32,0.00,CLR,,0.00,WeatherDisplay:10.37,2013-03-05 23:49:00,
2013-03-05 18:54:00,69.6,39.2,30.00,SW,221,3.5,0.0,33,0.00,CLR,,0.00,WeatherDisplay:10.37,2013-03-05 23:54:00,
2013-03-05 18:59:00,69.3,38.9,30.00,SSW,199,0.0,0.0,33,0.00,CLR,,0.00,WeatherDisplay:10.37,2013-03-05 23:59:00,
2013-03-05 19:04:00,68.9,38.6,30.00,SSE,168,0.0,0.0,33,0.00,CLR,,0.00,WeatherDisplay:10.37,2013-03-06 00:04:00,
2013-03-05 19:09:00,68.5,38.3,30.00,South,191,0.0,0.0,33,0.00,CLR,,0.00,WeatherDisplay:10.37,2013-03-06 00:09:00,
2013-03-05 19:14:00,68.4,38.1,30.00,SE,145,0.0,0.0,33,0.00,CLR,,0.00,WeatherDisplay:10.37,2013-03-06 00:14:00,
2013-03-05 19:19:00,68.2,38.0,30.00,SSW,209,3.5,3.5,33,0.00,CLR,,0.00,WeatherDisplay:10.37,2013-03-06 00:19:00,
2013-03-05 19:24:00,68.0,37.8,30.00,SSW,192,0.0,0.0,33,0.00,CLR,,0.00,WeatherDisplay:10.37,2013-03-06 00:24:00,
2013-03-05 19:29:00,67.8,38.4,30.00,SSW,203,0.0,0.0,34,0.00,CLR,,0.00,WeatherDisplay:10.37,2013-03-06 00:29:00,
2013-03-05 19:34:00,67.6,38.3,30.00,NNW,327,2.7,0.0,34,0.00,CLR,,0.00,WeatherDisplay:10.37,2013-03-06 00:34:00,
2013-03-05 19:39:00,67.6,38.3,30.00,SSW,208,3.5,3.5,34,0.00,CLR,,0.00,WeatherDisplay:10.37,2013-03-06 00:39:00,
2013-03-05 19:44:00,67.5,38.1,30.00,ESE,112,3.5,3.5,34,0.00,CLR,,0.00,WeatherDisplay:10.37,2013-03-06 00:44:00,
2013-03-05 19:49:00,67.5,38.1,30.00,West,280,2.3,0.0,34,0.00,CLR,,0.00,WeatherDisplay:10.37,2013-03-06 00:49:00,
2013-03-05 19:54:00,67.5,38.1,30.00,West,266,4.6,0.0,34,0.00,CLR,,0.00,WeatherDisplay:10.37,2013-03-06 00:54:00,
2013-03-05 19:59:00,67.5,38.1,30.00,SW,225,3.5,3.5,34,0.00,CLR,,0.00,WeatherDisplay:10.37,2013-03-06 00:59:00,
2013-03-05 20:04:00,67.3,37.9,30.00,SE,142,3.5,0.0,34,0.00,CLR,,0.00,WeatherDisplay:10.37,2013-03-06 01:04:00,
2013-03-05 20:09:00,67.3,37.9,30.00,SSW,196,2.3,0.0,34,0.00,CLR,,0.00,WeatherDisplay:10.37,2013-03-06 01:09:00,
2013-03-05 20:14:00,67.1,37.8,30.00,SSW,201,3.5,3.5,34,0.00,CLR,,0.00,WeatherDisplay:10.37,2013-03-06 01:14:00,
2013-03-05 20:19:00,66.9,37.6,30.00,SE,126,5.8,5.8,34,0.00,CLR,,0.00,WeatherDisplay:10.37,2013-03-06 01:19:00,
2013-03-05 20:24:00,66.7,37.5,30.00,SSE,151,2.7,0.0,34,0.00,CLR,,0.00,WeatherDisplay:10.37,2013-03-06 01:24:00,
2013-03-05 20:29:00,66.6,37.3,30.00,WSW,246,2.3,0.0,34,0.00,CLR,,0.00,WeatherDisplay:10.37,2013-03-06 01:29:00,
2013-03-05 20:34:00,66.4,37.1,30.00,SSE,165,3.5,0.0,34,0.00,CLR,,0.00,WeatherDisplay:10.37,2013-03-06 01:34:00,
2013-03-05 20:39:00,66.4,37.1,30.00,South,176,5.8,5.8,34,0.00,CLR,,0.00,WeatherDisplay:10.37,2013-03-06 01:39:00,
2013-03-05 20:44:00,66.4,37.1,30.00,SSE,164,2.7,0.0,34,0.00,CLR,,0.00,WeatherDisplay:10.37,2013-03-06 01:44:00,
2013-03-05 20:49:00,66.2,37.0,30.00,WSW,251,4.0,0.0,34,0.00,CLR,,0.00,WeatherDisplay:10.37,2013-03-06 01:49:00,
2013-03-05 20:54:00,66.0,37.6,30.00,North,357,3.5,0.0,35,0.00,CLR,,0.00,WeatherDisplay:10.37,2013-03-06 01:54:00,
2013-03-05 20:59:00,66.0,37.6,30.00,SSE,158,3.5,0.0,35,0.00,CLR,,0.00,WeatherDisplay:10.37,2013-03-06 01:59:00,
2013-03-05 21:04:00,65.7,37.2,30.00,NE,52,3.5,3.5,35,0.00,CLR,,0.00,WeatherDisplay:10.37,2013-03-06 02:04:00,
2013-03-05 21:09:00,65.7,37.2,30.00,SW,222,5.8,5.8,35,0.00,CLR,,0.00,WeatherDisplay:10.37,2013-03-06 02:09:00,
2013-03-05 21:14:00,65.5,37.8,30.00,South,172,4.9,4.9,36,0.00,CLR,,0.00,WeatherDisplay:10.37,2013-03-06 02:14:00,
2013-03-05 21:19:00,65.3,38.3,30.00,SSW,210,2.3,0.0,37,0.00,CLR,,0.00,WeatherDisplay:10.37,2013-03-06 02:19:00,
2013-03-05 21:24:00,65.1,38.9,30.00,WNW,282,3.6,3.6,38,0.00,CLR,,0.00,WeatherDisplay:10.37,2013-03-06 02:24:00,
2013-03-05 21:29:00,64.8,39.2,30.00,West,270,5.8,5.8,39,0.00,CLR,,0.00,WeatherDisplay:10.37,2013-03-06 02:29:00,
2013-03-05 21:34:00,64.6,39.7,30.00,ENE,57,3.5,0.0,40,0.00,CLR,,0.00,WeatherDisplay:10.37,2013-03-06 02:34:00,
2013-03-05 21:39:00,64.4,40.8,30.00,East,96,3.5,0.0,42,0.00,CLR,,0.00,WeatherDisplay:10.37,2013-03-06 02:39:00,
2013-03-05 21:44:00,64.2,41.2,30.00,South,179,3.5,0.0,43,0.00,CLR,,0.00,WeatherDisplay:10.37,2013-03-06 02:44:00,
2013-03-05 21:49:00,63.9,41.5,30.00,SW,218,3.5,0.0,44,0.00,CLR,,0.00,WeatherDisplay:10.37,2013-03-06 02:49:00,
2013-03-05 21:54:00,63.9,42.1,30.00,SSE,152,3.5,3.5,45,0.00,CLR,,0.00,WeatherDisplay:10.37,2013-03-06 02:54:00,
2013-03-05 21:59:00,63.7,42.5,30.00,South,181,5.8,5.8,46,0.00,CLR,,0.00,WeatherDisplay:10.37,2013-03-06 02:59:00,
2013-03-05 22:04:00,63.9,44.3,30.00,SSW,206,5.8,5.8,49,0.00,CLR,,0.00,WeatherDisplay:10.37,2013-03-06 03:04:00,
2013-03-05 22:10:00,63.9,44.3,30.00,West,259,3.5,3.5,49,0.00,CLR,,0.00,WeatherDisplay:10.37,2013-03-06 03:10:00,
2013-03-05 22:15:00,63.7,45.2,30.00,WNW,288,5.8,5.8,51,0.00,CLR,,0.00,WeatherDisplay:10.37,2013-03-06 03:15:00,
2013-03-05 22:20:00,63.7,46.7,30.00,WSW,248,5.8,5.8,54,0.00,CLR,,0.00,WeatherDisplay:10.37,2013-03-06 03:20:00,
2013-03-05 22:25:00,63.7,48.2,30.00,West,259,5.8,5.8,57,0.00,CLR,,0.00,WeatherDisplay:10.37,2013-03-06 03:25:00,
2013-03-05 22:30:00,63.7,48.6,30.00,ESE,112,3.5,3.5,58,0.00,CLR,,0.00,WeatherDisplay:10.37,2013-03-06 03:30:00,
2013-03-05 22:35:00,63.7,48.2,30.00,West,268,5.8,5.8,57,0.00,CLR,,0.00,WeatherDisplay:10.37,2013-03-06 03:35:00,
2013-03-05 22:40:00,63.9,49.7,30.00,WSW,255,3.6,3.6,60,0.00,CLR,,0.00,WeatherDisplay:10.37,2013-03-06 03:40:00,
2013-03-05 22:45:00,63.9,50.1,30.00,NNE,27,3.5,0.0,61,0.00,CLR,,0.00,WeatherDisplay:10.37,2013-03-06 03:45:00,
2013-03-05 22:50:00,63.9,50.1,30.00,WSW,256,4.6,4.6,61,0.00,CLR,,0.00,WeatherDisplay:10.37,2013-03-06 03:50:00,
2013-03-05 22:55:00,64.0,51.2,30.00,SSW,195,5.8,5.8,63,0.00,CLR,,0.00,WeatherDisplay:10.37,2013-03-06 03:55:00,
2013-03-05 23:00:00,64.0,51.2,30.00,South,177,4.6,4.6,63,0.00,CLR,,0.00,WeatherDisplay:10.37,2013-03-06 04:00:00,
2013-03-05 23:05:00,64.2,51.4,30.00,East,97,3.5,3.5,63,0.00,CLR,,0.00,WeatherDisplay:10.37,2013-03-06 04:05:00,
2013-03-05 23:10:00,64.2,51.8,30.00,SSE,157,8.1,8.1,64,0.00,CLR,,0.00,WeatherDisplay:10.37,2013-03-06 04:10:00,
2013-03-05 23:15:00,64.4,52.0,30.00,SE,127,3.5,3.5,64,0.00,CLR,,0.00,WeatherDisplay:10.37,2013-03-06 04:15:00,
2013-03-05 23:20:00,64.4,51.5,30.00,South,188,3.5,3.5,63,0.00,CLR,,0.00,WeatherDisplay:10.37,2013-03-06 04:20:00,
2013-03-05 23:25:00,64.4,52.0,30.00,West,265,5.8,5.8,64,0.00,CLR,,0.00,WeatherDisplay:10.37,2013-03-06 04:25:00,
2013-03-05 23:30:00,64.4,52.0,30.00,West,278,5.8,5.8,64,0.00,CLR,,0.00,WeatherDisplay:10.37,2013-03-06 04:30:00,
2013-03-05 23:35:00,64.4,52.0,29.97,East,91,3.5,0.0,64,0.00,CLR,,0.00,WeatherDisplay:10.37,2013-03-06 04:35:00,
2013-03-05 23:40:00,64.4,53.2,29.97,WNW,295,6.9,6.9,67,0.00,CLR,,0.00,WeatherDisplay:10.37,2013-03-06 04:40:00,
2013-03-05 23:45:00,64.6,53.4,29.97,SSW,210,5.8,5.8,67,0.00,CLR,,0.00,WeatherDisplay:10.37,2013-03-06 04:45:00,
2013-03-05 23:50:00,64.6,53.0,29.97,NNW,343,3.5,3.5,66,0.00,CLR,,0.00,WeatherDisplay:10.37,2013-03-06 04:50:00,
2013-03-05 23:55:00,64.6,53.0,29.97,ESE,103,3.5,0.0,66,0.00,CLR,,0.00,WeatherDisplay:10.37,2013-03-06 04:55:00,